Main page
METAR-TAF:

METAR-TAF

Airports :

RAF Linton-on-Ouse

Linton-on-Ouse, England

latitude: 54-03N, longitude: 001-15W, elevation: 16 m

Current weather observation

The report was made 46 minutes ago, at 23:50 UTC
Wind 4 kt from the North
Temperature 7°C
Humidity 93%
Pressure 1027 hPa
Visibility: 8000 m

METAR: EGXU 232350Z AUTO 35004KT 8000 // NCD 07/06 Q1027

Time: 01:36 (00:36 UTC)

Forecast

The report was made 10 hours and 49 minutes ago, at 13:47 UTC
Forecast valid from 23 at 15 UTC to 23 at 18 UTC
Wind 10 kt from the East/Northeast
Visibility 10 km or more
Few clouds at a height of 3000 ft

TAF: EGXU 231347Z 2315/2318 06010KT 9999 FEW030

Weather observations and forecasts of more than 4000 airports (METAR and TAF reports).

The available stations are represented by yellow and red dots on the map.

Hover mouse over dot to see the name of the station.

Then click to see weather observations and forecasts.

To change the map : click on the green buttons with a black cross to zoom in, on the green button with a dash to zoom out, or on the green arrows for adjacent maps.


METAR-TAF: